ADDS METAR Data INFO
IDs: Format: Raw Decoded Include TAF

Data at: 1231 UTC 20 Jul 2017

METAR for:KAUS (Austin/Bergstrom Int, TX, US)
Text:KAUS 201153Z 17004KT 10SM FEW011 FEW150 24/23 A3013 RMK AO2 SLP190 T02440233 10272 20239 53009
Temperature: 24.4°C ( 76°F)
Dewpoint: 23.3°C ( 74°F) [RH = 94%]
Pressure (altimeter):30.13 inches Hg (1020.4 mb) [Sea level pressure: 1019.0 mb]
Winds:from the S (170 degrees) at 5 MPH (4 knots; 2.1 m/s)
Visibility:10 or more sm (16+ km)
Ceiling:at least 12,000 feet AGL
Clouds: few clouds at 1100 feet AGL, few clouds at 15000 feet AGL